createdAt,value
2023-07-04T00:00:23.365Z,2.90
2023-07-04T00:04:24.838Z,3.20
2023-07-04T00:08:28.030Z,2.97
2023-07-04T00:12:32.011Z,2.70
2023-07-04T00:16:35.008Z,2.73
2023-07-04T00:20:36.726Z,2.60
2023-07-04T00:24:38.231Z,3.10
2023-07-04T00:28:40.040Z,2.60
2023-07-04T00:32:42.978Z,3.10
2023-07-04T00:36:44.477Z,2.87
2023-07-04T00:40:46.197Z,2.40
2023-07-04T00:44:49.267Z,2.80
2023-07-04T00:48:52.248Z,2.63
2023-07-04T00:52:55.818Z,2.67
2023-07-04T00:57:00.966Z,2.90
2023-07-04T01:01:02.635Z,2.83
2023-07-04T01:05:06.653Z,3.10
2023-07-04T01:09:09.766Z,2.20
2023-07-04T01:13:32.171Z,2.53
2023-07-04T01:17:33.705Z,2.60
2023-07-04T01:21:38.072Z,3.00
2023-07-04T01:25:44.075Z,2.60
2023-07-04T01:29:47.317Z,3.10
2023-07-04T01:33:49.280Z,2.80
2023-07-04T01:37:50.835Z,2.77
2023-07-04T01:41:52.411Z,2.63
2023-07-04T01:45:55.445Z,2.97
2023-07-04T01:49:57.107Z,2.60
2023-07-04T01:53:59.153Z,3.00
2023-07-04T01:58:00.745Z,2.43
2023-07-04T02:02:03.797Z,2.57
2023-07-04T02:06:06.343Z,2.37
2023-07-04T02:10:08.614Z,2.90
2023-07-04T02:14:10.090Z,2.60
2023-07-04T02:18:13.150Z,2.50
2023-07-04T02:22:14.556Z,2.40
2023-07-04T02:26:15.966Z,3.07
2023-07-04T02:30:17.660Z,2.60
2023-07-04T02:34:20.445Z,3.10
2023-07-04T02:38:21.903Z,2.53
2023-07-04T02:42:23.372Z,3.33
2023-07-04T02:46:24.871Z,3.00
2023-07-04T02:50:27.707Z,3.27
2023-07-04T02:54:29.136Z,2.60
2023-07-04T02:58:30.574Z,3.00
2023-07-04T03:02:32.127Z,2.70
2023-07-04T03:06:35.248Z,3.07
2023-07-04T03:10:36.709Z,3.17
2023-07-04T03:14:38.271Z,2.90
2023-07-04T03:18:39.771Z,3.40
2023-07-04T03:22:43.744Z,2.60
2023-07-04T03:26:45.429Z,3.30
2023-07-04T03:30:46.988Z,2.73
2023-07-04T03:34:48.492Z,3.07
2023-07-04T03:38:51.319Z,2.67
2023-07-04T03:42:52.876Z,2.73
2023-07-04T03:46:54.624Z,2.83
2023-07-04T03:50:56.064Z,3.10
2023-07-04T03:54:58.902Z,2.97
2023-07-04T03:59:00.361Z,2.80
2023-07-04T04:03:01.902Z,2.77
2023-07-04T04:07:03.804Z,3.23
2023-07-04T04:11:06.796Z,2.97
2023-07-04T04:15:08.865Z,3.03
2023-07-04T04:19:10.610Z,3.40
2023-07-04T04:23:12.119Z,3.23
2023-07-04T04:27:15.129Z,3.50
2023-07-04T04:31:16.691Z,4.03
2023-07-04T04:35:18.197Z,3.17
2023-07-04T04:39:19.973Z,3.20
2023-07-04T04:43:22.997Z,2.83
2023-07-04T04:47:25.586Z,3.03
2023-07-04T04:51:27.169Z,3.10
2023-07-04T04:55:29.126Z,3.63
2023-07-04T04:59:31.872Z,3.03
2023-07-04T05:03:33.348Z,3.40
2023-07-04T05:07:35.361Z,3.40
2023-07-04T05:11:36.822Z,3.57
2023-07-04T05:15:39.937Z,3.33
2023-07-04T05:19:41.381Z,3.43
2023-07-04T05:23:44.722Z,3.47
2023-07-04T05:27:46.377Z,3.30
2023-07-04T05:31:50.039Z,3.30
2023-07-04T05:35:51.777Z,3.73
2023-07-04T05:39:53.224Z,3.60
2023-07-04T05:43:56.876Z,3.50
2023-07-04T05:48:02.133Z,3.23
2023-07-04T05:52:04.133Z,3.70
2023-07-04T05:56:07.431Z,3.00
2023-07-04T06:00:10.162Z,3.43
2023-07-04T06:04:14.475Z,3.63
2023-07-04T06:08:15.936Z,3.37
2023-07-04T06:12:17.408Z,3.13
2023-07-04T06:16:21.071Z,3.27
2023-07-04T06:20:24.235Z,3.30
2023-07-04T06:24:25.731Z,3.23
2023-07-04T06:28:27.211Z,3.33
2023-07-04T06:32:28.663Z,3.17
2023-07-04T06:36:31.462Z,3.20
2023-07-04T06:40:33.144Z,3.20
2023-07-04T06:44:34.595Z,3.40
2023-07-04T06:48:36.085Z,3.10
2023-07-04T06:52:39.108Z,2.93
2023-07-04T06:56:40.583Z,3.20
2023-07-04T07:00:43.412Z,3.57
2023-07-04T07:04:45.373Z,2.90
2023-07-04T07:08:48.278Z,3.33
2023-07-04T07:12:49.855Z,3.20
2023-07-04T07:16:57.168Z,2.60
2023-07-04T07:20:58.914Z,2.97
2023-07-04T07:25:01.953Z,3.17
2023-07-04T07:29:03.413Z,3.27
2023-07-04T07:33:07.185Z,3.10
2023-07-04T07:37:09.457Z,3.67
2023-07-04T07:41:13.072Z,2.80
2023-07-04T07:45:14.964Z,2.70
2023-07-04T07:49:16.409Z,3.10
2023-07-04T07:53:17.845Z,3.10
2023-07-04T07:57:20.619Z,2.83
2023-07-04T08:01:27.004Z,3.00
2023-07-04T08:05:28.709Z,2.83
2023-07-04T08:09:31.611Z,3.00
2023-07-04T08:13:34.450Z,2.60
2023-07-04T08:17:37.246Z,2.73
2023-07-04T08:21:38.731Z,2.90
2023-07-04T08:25:40.702Z,2.97
2023-07-04T08:29:43.496Z,2.97
2023-07-04T08:33:45.543Z,2.60
2023-07-04T08:37:47.205Z,2.73
2023-07-04T08:41:53.279Z,2.33
2023-07-04T08:45:57.094Z,2.37
2023-07-04T08:50:03.323Z,3.10
2023-07-04T08:54:11.423Z,2.60
2023-07-04T08:58:16.568Z,2.27
2023-07-04T09:02:45.436Z,2.60
2023-07-04T09:06:52.434Z,2.70
2023-07-04T09:11:00.305Z,2.57
2023-07-04T09:15:13.030Z,2.60
2023-07-04T09:19:18.937Z,2.83
2023-07-04T09:23:22.841Z,2.70
2023-07-04T09:27:24.502Z,2.73
2023-07-04T09:31:30.680Z,3.10
2023-07-04T09:35:33.538Z,2.80
2023-07-04T09:39:54.968Z,3.13
2023-07-04T09:44:11.515Z,3.33
2023-07-04T09:48:13.000Z,3.50
2023-07-04T09:52:25.070Z,2.67
2023-07-04T09:56:27.923Z,2.93
2023-07-04T10:00:29.398Z,3.50
2023-07-04T10:04:35.652Z,3.40
2023-07-04T10:08:54.870Z,2.80
2023-07-04T10:12:56.711Z,2.80
2023-07-04T10:17:09.621Z,3.50
2023-07-04T10:21:11.250Z,3.47
2023-07-04T10:25:17.268Z,3.27
2023-07-04T10:29:24.246Z,3.77
2023-07-04T10:33:37.362Z,3.80
2023-07-04T10:37:40.864Z,3.27
2023-07-04T10:41:52.025Z,3.30
2023-07-04T10:46:01.158Z,3.60
2023-07-04T10:50:09.053Z,3.30
2023-07-04T10:54:13.020Z,3.40
2023-07-04T10:58:20.273Z,3.60
2023-07-04T11:02:29.589Z,3.80
2023-07-04T11:06:35.996Z,3.27
2023-07-04T11:10:42.261Z,3.53
2023-07-04T11:14:47.445Z,3.63
2023-07-04T11:19:05.060Z,3.57
2023-07-04T11:23:14.906Z,3.80
2023-07-04T11:27:20.201Z,3.50
2023-07-04T11:31:28.759Z,3.40
2023-07-04T11:35:33.245Z,3.60
2023-07-04T11:39:37.626Z,3.80
2023-07-04T11:43:44.636Z,3.60
2023-07-04T11:47:52.738Z,3.80
2023-07-04T11:52:04.731Z,3.80
2023-07-04T11:56:16.304Z,3.97
2023-07-04T12:00:24.323Z,4.00
2023-07-04T12:04:47.778Z,4.22
2023-07-04T12:08:52.174Z,4.25
2023-07-04T12:12:59.246Z,4.10
2023-07-04T12:17:02.189Z,4.07
2023-07-04T12:21:05.131Z,4.25
2023-07-04T12:25:12.513Z,4.47
2023-07-04T12:29:17.320Z,4.55
2023-07-04T12:33:20.386Z,3.95
2023-07-04T12:37:24.990Z,4.55
2023-07-04T12:41:29.058Z,4.05
2023-07-04T12:45:32.777Z,4.68
2023-07-04T12:49:34.544Z,4.78
2023-07-04T12:53:40.325Z,4.50
2023-07-04T12:57:42.251Z,4.50
2023-07-04T13:01:43.995Z,4.47
2023-07-04T13:05:48.225Z,4.35
2023-07-04T13:09:55.705Z,5.10
2023-07-04T13:14:05.469Z,4.45
2023-07-04T13:18:08.177Z,4.97
2023-07-04T13:22:14.563Z,4.75
2023-07-04T13:26:23.572Z,5.20
2023-07-04T13:30:31.393Z,5.00
2023-07-04T13:34:34.290Z,4.60
2023-07-04T13:42:44.019Z,4.90
2023-07-04T13:46:47.414Z,4.82
2023-07-04T13:50:50.541Z,4.70
2023-07-04T13:54:52.034Z,4.70
2023-07-04T13:58:54.926Z,4.85
2023-07-04T14:07:00.995Z,4.55
2023-07-04T14:11:04.532Z,5.00
2023-07-04T14:16:37.161Z,4.88
2023-07-04T14:23:45.723Z,4.78
2023-07-04T14:27:47.518Z,4.78
2023-07-04T14:31:50.353Z,4.45
2023-07-04T14:35:51.878Z,5.57
2023-07-04T14:39:54.871Z,4.80
2023-07-04T14:43:56.295Z,4.75
2023-07-04T14:47:59.430Z,5.00
2023-07-04T14:52:00.907Z,4.65
2023-07-04T14:56:04.565Z,4.90
2023-07-04T15:00:07.978Z,4.30
2023-07-04T15:04:10.977Z,4.17
2023-07-04T15:08:12.475Z,4.27
2023-07-04T15:12:13.993Z,4.17
2023-07-04T15:16:15.430Z,4.33
2023-07-04T15:20:18.271Z,3.93
2023-07-04T15:24:22.433Z,4.10
2023-07-04T15:28:25.650Z,5.10
2023-07-04T15:32:27.122Z,4.90
2023-07-04T15:36:29.983Z,4.20
2023-07-04T15:40:31.783Z,4.37
2023-07-04T15:44:33.576Z,4.30
2023-07-04T15:48:35.977Z,3.97
2023-07-04T15:52:39.488Z,4.27
2023-07-04T15:56:40.970Z,4.13
2023-07-04T16:00:44.343Z,4.37
2023-07-04T16:04:46.323Z,4.00
2023-07-04T16:08:50.220Z,4.87
2023-07-04T16:12:51.660Z,4.17
2023-07-04T16:16:53.128Z,4.47
2023-07-04T16:20:55.691Z,4.60
2023-07-04T16:24:59.549Z,4.43
2023-07-04T16:29:01.422Z,4.17
2023-07-04T16:33:03.570Z,4.10
2023-07-04T16:37:05.222Z,4.00
2023-07-04T16:41:13.151Z,4.60
2023-07-04T16:45:14.625Z,4.00
2023-07-04T16:49:16.574Z,4.00
2023-07-04T16:53:18.036Z,4.23
2023-07-04T16:57:21.093Z,4.10
2023-07-04T17:01:22.950Z,4.20
2023-07-04T17:05:25.084Z,4.30
2023-07-04T17:09:26.672Z,3.90
2023-07-04T17:13:37.090Z,4.03
2023-07-04T17:17:40.838Z,4.13
2023-07-04T17:21:42.368Z,4.10
2023-07-04T17:25:44.662Z,3.90
2023-07-04T17:29:47.631Z,4.20
2023-07-04T17:33:49.115Z,4.50
2023-07-04T17:37:51.383Z,4.40
2023-07-04T17:41:53.214Z,4.33
2023-07-04T17:46:00.107Z,4.80
2023-07-04T17:50:01.573Z,4.33
2023-07-04T17:54:03.082Z,4.30
2023-07-04T17:58:04.524Z,3.97
2023-07-04T18:02:07.581Z,4.37
2023-07-04T18:06:10.151Z,4.40
2023-07-04T18:10:11.814Z,4.23
2023-07-04T18:14:14.433Z,4.50
2023-07-04T18:18:18.582Z,3.97
2023-07-04T18:22:20.180Z,4.17
2023-07-04T18:26:22.911Z,3.90
2023-07-04T18:30:24.599Z,4.53
2023-07-04T18:34:27.719Z,4.10
2023-07-04T18:38:29.132Z,4.50
2023-07-04T18:42:32.939Z,4.47
2023-07-04T18:46:35.813Z,4.20
2023-07-04T18:50:39.008Z,4.50
2023-07-04T18:54:40.437Z,4.07
2023-07-04T18:58:43.339Z,4.20
2023-07-04T19:02:44.907Z,4.00
2023-07-04T19:06:47.820Z,4.57
2023-07-04T19:10:49.274Z,5.13
2023-07-04T19:14:50.816Z,4.80
2023-07-04T19:18:52.287Z,4.50
2023-07-04T19:22:55.082Z,4.70
2023-07-04T19:26:57.748Z,4.50
2023-07-04T19:31:01.289Z,4.30
2023-07-04T19:35:02.718Z,5.20
2023-07-04T19:39:05.659Z,4.80
2023-07-04T19:43:07.390Z,4.10
2023-07-04T19:47:08.983Z,4.57
2023-07-04T19:51:12.476Z,4.37
2023-07-04T19:55:15.669Z,4.27
2023-07-04T19:59:17.107Z,4.30
2023-07-04T20:03:18.631Z,4.63
2023-07-04T20:07:20.219Z,4.40
2023-07-04T20:11:24.779Z,4.70
2023-07-04T20:15:26.672Z,4.93
2023-07-04T20:19:28.073Z,4.77
2023-07-04T20:23:29.827Z,4.73
2023-07-04T20:27:32.589Z,4.57
2023-07-04T20:31:34.176Z,4.80
2023-07-04T20:35:35.974Z,4.27
2023-07-04T20:39:38.071Z,4.80
2023-07-04T20:43:41.491Z,4.73
2023-07-04T20:47:43.761Z,4.77
2023-07-04T20:51:45.207Z,4.90
2023-07-04T20:55:49.692Z,4.73
2023-07-04T20:59:52.477Z,5.67
2023-07-04T21:03:53.991Z,5.33
2023-07-04T21:07:56.449Z,5.10
2023-07-04T21:11:57.896Z,5.00
2023-07-04T21:16:06.213Z,5.10
2023-07-04T21:20:08.763Z,5.10
2023-07-04T21:24:10.217Z,5.10
2023-07-04T21:28:11.658Z,5.07
2023-07-04T21:32:14.450Z,5.20
2023-07-04T21:36:15.893Z,4.57
2023-07-04T21:40:17.569Z,4.43
2023-07-04T21:44:19.222Z,4.27
2023-07-04T21:48:21.998Z,4.10
2023-07-04T21:52:24.492Z,4.43
2023-07-04T21:56:25.946Z,3.87
2023-07-04T22:00:27.396Z,4.30
2023-07-04T22:04:30.238Z,3.77
2023-07-04T22:08:32.238Z,3.90
2023-07-04T22:12:33.677Z,3.30
2023-07-04T22:16:35.692Z,3.63
2023-07-04T22:20:38.525Z,3.10
2023-07-04T22:24:39.947Z,2.93
2023-07-04T22:28:42.109Z,2.77
2023-07-04T22:32:44.779Z,2.97
2023-07-04T22:36:50.146Z,3.20
2023-07-04T22:40:52.797Z,2.67
2023-07-04T22:44:54.230Z,2.43
2023-07-04T22:48:55.818Z,2.90
2023-07-04T22:52:58.587Z,3.07
2023-07-04T22:57:00.036Z,2.80
2023-07-04T23:01:07.057Z,2.50
2023-07-04T23:05:09.310Z,2.60
2023-07-04T23:09:12.214Z,2.80
2023-07-04T23:13:13.632Z,2.87
2023-07-04T23:17:15.227Z,3.00
2023-07-04T23:21:17.716Z,2.77
2023-07-04T23:25:22.804Z,2.63
2023-07-04T23:29:24.216Z,2.30
2023-07-04T23:33:25.688Z,2.87
2023-07-04T23:37:27.182Z,2.57
2023-07-04T23:41:29.972Z,3.00
2023-07-04T23:45:31.449Z,2.67
2023-07-04T23:49:33.033Z,2.83
2023-07-04T23:53:34.699Z,2.80
2023-07-04T23:57:37.895Z,2.47
